Time;durP1;ratioP1;P1;durP2;ratioP2;P2;SDS_P1;SDS_P2;PMS_P1;PMS_P2;Temp;Humidity;BMP_temperature;BMP_pressure;BME280_temperature;BME280_humidity;BME280_pressure;Samples;Min_cycle;Max_cycle;Signal;HPM_P1;HPM_P2
2023/01/15 00:02:31;;;;;;;18.27;10.73;;;6.90;99.90;;;;;;5058406;28;20230;-84
2023/01/15 00:05:20;;;;;;;18.47;10.70;;;6.90;99.90;;;;;;5063440;28;20242;-83
2023/01/15 00:08:09;;;;;;;17.20;10.80;;;6.90;99.90;;;;;;5081819;28;20205;-86
2023/01/15 00:10:58;;;;;;;20.57;10.50;;;6.90;99.90;;;;;;5073945;28;20220;-88
2023/01/15 00:13:47;;;;;;;20.07;11.03;;;6.90;99.90;;;;;;5065995;28;20685;-86
2023/01/15 00:16:39;;;;;;;22.73;11.90;;;6.90;99.90;;;;;;5084655;28;20579;-86
2023/01/15 00:19:28;;;;;;;19.57;10.70;;;7.00;99.90;;;;;;5066260;28;20657;-87
2023/01/15 00:22:17;;;;;;;18.93;11.13;;;7.00;99.90;;;;;;5083834;28;20249;-88
2023/01/15 00:28:14;;;;;;;20.47;11.23;;;7.00;99.90;;;;;;5066010;28;20222;-87
2023/01/15 00:31:06;;;;;;;19.10;11.70;;;7.00;99.90;;;;;;5077176;28;20227;-86
2023/01/15 00:33:59;;;;;;;23.03;11.40;;;6.90;99.90;;;;;;5065966;28;20219;-86
2023/01/15 00:36:47;;;;;;;20.53;11.30;;;6.90;99.90;;;;;;5045468;28;20233;-88
2023/01/15 00:39:36;;;;;;;20.07;11.27;;;6.90;99.90;;;;;;5043093;28;20296;-88
2023/01/15 00:42:25;;;;;;;18.77;11.17;;;6.90;99.90;;;;;;5048466;28;20215;-87
2023/01/15 00:45:15;;;;;;;18.93;11.20;;;6.80;99.90;;;;;;5063174;28;20224;-88
2023/01/15 00:48:05;;;;;;;18.30;10.40;;;6.80;99.90;;;;;;5066160;28;20213;-87
2023/01/15 00:50:57;;;;;;;15.77;9.50;;;6.80;99.90;;;;;;5060427;28;20242;-85
2023/01/15 00:53:47;;;;;;;14.83;9.93;;;6.80;99.90;;;;;;5063434;28;20832;-85
2023/01/15 00:56:36;;;;;;;17.07;9.87;;;6.80;99.90;;;;;;5078780;28;20247;-86
2023/01/15 00:59:25;;;;;;;15.60;9.90;;;6.80;99.90;;;;;;5060844;28;20212;-86
2023/01/15 01:02:14;;;;;;;16.43;9.70;;;6.70;99.90;;;;;;5067729;28;20226;-86
2023/01/15 01:05:04;;;;;;;18.03;9.80;;;6.70;99.90;;;;;;5078100;28;20564;-86
2023/01/15 01:07:54;;;;;;;15.90;9.80;;;6.60;99.90;;;;;;5081569;28;20555;-87
2023/01/15 01:10:43;;;;;;;14.43;9.20;;;6.70;99.90;;;;;;5047242;28;20213;-86
2023/01/15 01:13:33;;;;;;;15.93;10.03;;;6.70;99.90;;;;;;5070533;28;20687;-87
2023/01/15 01:16:26;;;;;;;15.83;9.53;;;6.70;99.90;;;;;;5059138;28;20630;-87
2023/01/15 01:19:17;;;;;;;15.37;9.17;;;6.60;99.90;;;;;;5059733;28;20395;-85
2023/01/15 01:22:06;;;;;;;14.90;9.17;;;6.60;99.90;;;;;;5074610;28;20221;-86
2023/01/15 01:24:56;;;;;;;15.27;8.67;;;6.60;99.90;;;;;;5075167;28;20238;-86
2023/01/15 01:27:45;;;;;;;15.03;9.07;;;6.60;99.90;;;;;;5065516;28;20236;-86
2023/01/15 01:30:34;;;;;;;13.83;8.37;;;6.60;99.90;;;;;;5072636;28;20706;-86
2023/01/15 01:33:23;;;;;;;14.63;8.80;;;6.60;99.90;;;;;;5065516;28;20224;-87
2023/01/15 01:36:11;;;;;;;16.17;8.77;;;6.50;99.90;;;;;;5058371;28;20224;-87
2023/01/15 01:39:01;;;;;;;13.93;8.47;;;6.50;99.90;;;;;;5060532;28;20326;-86
2023/01/15 01:41:51;;;;;;;14.40;8.47;;;6.50;99.90;;;;;;5075301;28;20219;-86
2023/01/15 01:45:00;;;;;;;16.13;8.70;;;6.50;99.90;;;;;;5074706;28;20211;-84
2023/01/15 01:47:49;;;;;;;14.17;8.67;;;6.50;99.90;;;;;;5067274;28;20236;-85
2023/01/15 01:50:41;;;;;;;14.40;9.17;;;6.50;99.90;;;;;;5048427;28;20226;-85
2023/01/15 01:53:32;;;;;;;14.27;8.60;;;6.40;99.90;;;;;;5072546;28;20873;-86
2023/01/15 01:56:22;;;;;;;13.63;8.30;;;6.40;99.90;;;;;;5071220;28;20221;-86
2023/01/15 01:59:12;;;;;;;13.43;8.57;;;6.40;99.90;;;;;;5087009;28;20706;-84
2023/01/15 02:02:01;;;;;;;13.10;8.13;;;6.30;99.90;;;;;;5067585;28;20859;-86
2023/01/15 02:04:52;;;;;;;13.63;8.37;;;6.30;99.90;;;;;;5051879;28;20286;-85
2023/01/15 02:07:41;;;;;;;13.87;8.67;;;6.20;99.90;;;;;;5072338;28;20230;-86
2023/01/15 02:10:30;;;;;;;16.10;8.53;;;6.40;99.90;;;;;;5095523;28;20211;-82
2023/01/15 02:13:26;;;;;;;13.20;8.50;;;6.30;99.90;;;;;;5089798;28;20736;-87
2023/01/15 02:16:22;;;;;;;13.27;7.97;;;6.20;99.90;;;;;;5061862;28;20229;-87
2023/01/15 02:19:22;;;;;;;13.27;8.00;;;6.10;99.90;;;;;;5055073;28;20234;-87
2023/01/15 02:22:24;;;;;;;12.43;7.77;;;6.20;99.90;;;;;;5093962;28;20219;-85
2023/01/15 02:25:19;;;;;;;12.97;8.07;;;6.30;99.90;;;;;;5096816;28;20282;-86
2023/01/15 02:28:19;;;;;;;15.10;8.03;;;6.30;99.90;;;;;;5069903;28;20215;-83
2023/01/15 02:31:12;;;;;;;11.23;7.20;;;6.20;99.90;;;;;;5069639;28;20362;-87
2023/01/15 02:34:06;;;;;;;14.07;8.17;;;6.10;99.90;;;;;;5056123;28;20223;-88
2023/01/15 02:37:00;;;;;;;15.60;7.97;;;6.20;99.90;;;;;;5067669;28;20230;-86
2023/01/15 02:39:51;;;;;;;12.67;8.30;;;6.20;99.90;;;;;;5067608;28;20229;-85
2023/01/15 02:42:43;;;;;;;13.37;7.87;;;6.20;99.90;;;;;;5064611;28;20219;-88
2023/01/15 02:45:39;;;;;;;12.10;7.13;;;6.20;99.90;;;;;;5073614;28;20272;-85
2023/01/15 02:48:36;;;;;;;12.80;7.70;;;6.20;99.90;;;;;;5061287;28;20591;-85
2023/01/15 02:51:29;;;;;;;12.73;7.60;;;6.20;99.90;;;;;;5065651;28;20712;-85
2023/01/15 02:54:20;;;;;;;11.90;7.67;;;6.20;99.90;;;;;;5059341;28;20215;-85
2023/01/15 02:57:11;;;;;;;11.93;7.40;;;6.10;99.90;;;;;;5066403;28;20599;-85
2023/01/15 03:00:03;;;;;;;13.50;7.93;;;6.10;99.90;;;;;;5066994;28;20216;-85
2023/01/15 03:02:59;;;;;;;13.93;7.93;;;6.20;99.90;;;;;;5045770;28;20231;-85
2023/01/15 03:05:57;;;;;;;11.27;7.30;;;6.10;99.90;;;;;;5063981;28;20230;-85
2023/01/15 03:08:46;;;;;;;13.37;8.13;;;6.20;99.90;;;;;;5078391;28;20230;-85
2023/01/15 03:11:42;;;;;;;11.97;7.37;;;6.20;99.90;;;;;;5065913;28;20590;-85
2023/01/15 03:14:39;;;;;;;12.97;7.90;;;6.20;99.90;;;;;;5070908;28;20229;-85
2023/01/15 03:17:35;;;;;;;14.10;8.07;;;6.20;99.90;;;;;;5060280;28;20769;-84
2023/01/15 03:20:28;;;;;;;16.00;7.73;;;6.20;99.90;;;;;;5079230;28;20216;-85
2023/01/15 03:23:20;;;;;;;13.27;8.10;;;6.20;99.90;;;;;;5071581;28;20227;-85
2023/01/15 03:26:09;;;;;;;13.77;8.10;;;6.10;99.90;;;;;;5057355;28;20266;-87
2023/01/15 03:29:04;;;;;;;12.97;7.83;;;6.10;99.90;;;;;;5081278;28;20219;-86
2023/01/15 03:31:53;;;;;;;11.37;8.07;;;6.10;99.90;;;;;;5089659;28;20229;-88
2023/01/15 03:34:46;;;;;;;14.67;8.17;;;6.20;99.90;;;;;;5093076;28;20281;-87
2023/01/15 03:37:39;;;;;;;13.23;8.13;;;6.20;99.90;;;;;;5076189;28;20234;-88
2023/01/15 03:40:30;;;;;;;14.47;8.53;;;6.10;99.90;;;;;;5071254;28;20235;-88
2023/01/15 03:43:42;;;;;;;12.37;8.10;;;6.20;99.90;;;;;;5088831;28;20230;-88
2023/01/15 03:46:54;;;;;;;14.13;8.30;;;6.10;99.90;;;;;;5073987;28;20568;-88
2023/01/15 03:49:57;;;;;;;14.80;7.93;;;6.20;99.90;;;;;;5081902;28;20231;-88
2023/01/15 03:53:09;;;;;;;15.23;8.10;;;6.20;99.90;;;;;;5067255;28;20237;-89
2023/01/15 03:56:13;;;;;;;11.53;7.13;;;6.30;99.90;;;;;;5060268;28;20273;-85
2023/01/15 03:59:12;;;;;;;12.57;7.60;;;6.20;99.90;;;;;;5062222;28;20689;-85
2023/01/15 04:02:18;;;;;;;12.13;7.77;;;6.20;99.90;;;;;;5064472;28;20228;-85
2023/01/15 04:05:10;;;;;;;14.73;7.83;;;6.30;99.90;;;;;;5063093;28;20274;-85
2023/01/15 04:08:03;;;;;;;12.80;7.37;;;6.20;99.90;;;;;;5074899;28;20279;-85
2023/01/15 04:10:54;;;;;;;16.50;7.80;;;6.10;99.90;;;;;;5059689;28;20212;-85
2023/01/15 04:13:44;;;;;;;13.00;7.93;;;6.10;99.90;;;;;;5043653;28;20222;-84
2023/01/15 04:16:46;;;;;;;11.77;7.60;;;6.30;99.90;;;;;;5040640;28;20228;-85
2023/01/15 04:19:35;;;;;;;11.60;6.80;;;6.20;99.90;;;;;;5044289;28;20227;-85
2023/01/15 04:22:27;;;;;;;11.07;7.13;;;6.20;99.90;;;;;;5032545;28;20230;-85
2023/01/15 04:25:17;;;;;;;11.83;7.30;;;6.30;99.90;;;;;;5042896;28;20259;-85
2023/01/15 04:28:06;;;;;;;12.57;6.93;;;6.30;99.90;;;;;;5044236;28;20849;-86
2023/01/15 04:30:58;;;;;;;10.90;7.20;;;6.20;99.90;;;;;;5033221;28;20272;-85
2023/01/15 04:33:47;;;;;;;12.23;7.00;;;6.30;99.90;;;;;;5034435;28;20224;-84
2023/01/15 04:36:36;;;;;;;10.97;6.27;;;6.20;99.90;;;;;;5042445;28;20227;-84
2023/01/15 04:39:25;;;;;;;12.03;6.53;;;6.20;99.90;;;;;;5044390;28;20223;-84
2023/01/15 04:45:21;;;;;;;11.63;6.30;;;6.30;99.90;;;;;;5038618;28;20257;-85
2023/01/15 04:48:11;;;;;;;11.50;6.33;;;6.30;99.90;;;;;;5041086;28;20226;-84
2023/01/15 04:51:03;;;;;;;9.87;5.67;;;6.20;99.90;;;;;;5043560;28;20734;-84
2023/01/15 04:53:52;;;;;;;10.47;6.30;;;6.20;99.90;;;;;;5035170;28;20807;-86
2023/01/15 04:56:43;;;;;;;10.13;5.73;;;6.20;99.90;;;;;;5028360;28;20302;-86
2023/01/15 04:59:34;;;;;;;9.17;5.73;;;6.20;99.90;;;;;;5040972;28;20312;-82
2023/01/15 05:02:22;;;;;;;7.20;4.77;;;6.20;99.90;;;;;;5056429;28;20229;-82
2023/01/15 05:05:11;;;;;;;8.03;5.17;;;6.30;99.90;;;;;;5039070;28;20231;-84
2023/01/15 05:08:00;;;;;;;9.43;5.73;;;6.30;99.90;;;;;;5051729;28;20221;-85
2023/01/15 05:10:49;;;;;;;7.33;5.10;;;6.40;99.90;;;;;;5060991;28;20303;-84
2023/01/15 05:13:38;;;;;;;7.93;4.90;;;6.30;99.90;;;;;;5068520;28;20378;-86
2023/01/15 05:16:29;;;;;;;7.50;4.60;;;6.30;99.90;;;;;;5062218;28;20349;-85
2023/01/15 05:19:18;;;;;;;7.53;5.10;;;6.20;99.90;;;;;;5054831;28;21219;-85
2023/01/15 05:22:07;;;;;;;7.57;4.60;;;6.30;99.90;;;;;;5072749;28;20280;-89
2023/01/15 05:24:56;;;;;;;8.37;5.23;;;6.30;99.90;;;;;;5069673;28;20234;-90
2023/01/15 05:27:44;;;;;;;9.73;4.80;;;6.50;99.90;;;;;;5069744;28;20232;-88
2023/01/15 05:30:33;;;;;;;6.93;4.40;;;6.40;99.90;;;;;;5071880;28;20220;-88
2023/01/15 05:33:24;;;;;;;6.77;4.50;;;6.40;99.90;;;;;;5066502;28;20236;-88
2023/01/15 05:36:14;;;;;;;7.07;4.30;;;6.40;99.90;;;;;;5064547;28;20765;-87
2023/01/15 05:39:03;;;;;;;7.70;4.40;;;6.50;99.90;;;;;;5057662;28;20223;-88
2023/01/15 05:41:52;;;;;;;8.10;4.03;;;6.50;99.90;;;;;;5063208;28;20215;-85
2023/01/15 05:44:41;;;;;;;5.93;4.10;;;6.50;99.90;;;;;;5055618;28;20229;-85
2023/01/15 05:47:31;;;;;;;7.53;4.33;;;6.50;99.90;;;;;;5057997;28;20312;-86
2023/01/15 05:50:22;;;;;;;8.10;3.73;;;6.50;99.90;;;;;;5062287;28;20586;-86
2023/01/15 05:53:17;;;;;;;7.30;4.03;;;6.50;99.90;;;;;;5057989;28;20229;-84
2023/01/15 05:56:09;;;;;;;9.60;4.30;;;6.50;99.90;;;;;;5058115;28;20269;-86
2023/01/15 05:58:59;;;;;;;7.43;3.43;;;6.60;99.90;;;;;;5062668;28;20291;-85
2023/01/15 06:01:48;;;;;;;6.23;4.10;;;6.60;99.90;;;;;;5062845;28;20228;-84
2023/01/15 06:04:37;;;;;;;7.00;3.87;;;6.50;99.90;;;;;;5072756;28;20946;-85
2023/01/15 06:07:27;;;;;;;6.13;3.80;;;6.60;99.90;;;;;;5060123;28;20221;-86
2023/01/15 06:10:17;;;;;;;5.87;3.93;;;6.60;99.90;;;;;;5064960;28;20212;-86
2023/01/15 06:13:06;;;;;;;6.87;3.50;;;6.60;99.90;;;;;;5081602;28;20301;-86
2023/01/15 06:15:55;;;;;;;6.57;3.77;;;6.50;99.90;;;;;;5086473;28;20238;-90
2023/01/15 06:18:44;;;;;;;6.17;3.67;;;6.50;99.90;;;;;;5080187;28;20214;-90
2023/01/15 06:21:35;;;;;;;5.87;3.53;;;6.60;99.90;;;;;;5061988;28;20218;-90
2023/01/15 06:24:25;;;;;;;4.50;3.47;;;6.60;99.90;;;;;;5060638;28;20236;-89
2023/01/15 06:27:14;;;;;;;4.73;3.37;;;6.70;99.90;;;;;;5066714;28;20215;-91
2023/01/15 06:30:04;;;;;;;4.90;3.50;;;6.70;99.90;;;;;;5065955;28;20217;-90
2023/01/15 06:32:54;;;;;;;5.27;3.30;;;6.70;99.90;;;;;;5083281;28;20288;-84
2023/01/15 06:35:42;;;;;;;5.27;3.17;;;6.70;99.90;;;;;;5067862;28;20228;-83
2023/01/15 06:38:31;;;;;;;4.97;3.20;;;6.70;99.90;;;;;;5066656;28;20218;-85
2023/01/15 06:47:37;;;;;;;6.57;2.97;;;6.80;99.90;;;;;;5060357;28;20227;-84
2023/01/15 06:50:26;;;;;;;4.67;3.20;;;6.90;99.90;;;;;;5055393;28;20231;-83
2023/01/15 06:53:15;;;;;;;5.30;3.20;;;6.80;99.90;;;;;;5047516;28;20263;-84
2023/01/15 06:56:04;;;;;;;5.27;3.30;;;6.60;99.90;;;;;;5063064;28;20770;-84
2023/01/15 06:58:55;;;;;;;4.07;2.90;;;6.60;99.90;;;;;;5068069;28;20220;-83
2023/01/15 07:01:44;;;;;;;6.13;2.93;;;6.60;99.90;;;;;;5066371;28;20264;-84
2023/01/15 07:04:33;;;;;;;5.60;3.17;;;6.70;99.90;;;;;;5056989;28;22499;-84
2023/01/15 07:07:22;;;;;;;5.23;3.00;;;6.70;99.90;;;;;;5066363;28;20316;-85
2023/01/15 07:10:12;;;;;;;5.23;3.10;;;6.60;99.90;;;;;;5048744;28;20228;-84
2023/01/15 07:13:01;;;;;;;4.73;3.17;;;6.60;99.90;;;;;;5065310;28;20229;-85
2023/01/15 07:15:51;;;;;;;6.23;3.20;;;6.50;99.90;;;;;;5053634;28;20228;-85
2023/01/15 07:18:40;;;;;;;5.43;3.17;;;6.50;99.90;;;;;;5055175;28;20229;-84
2023/01/15 07:21:29;;;;;;;7.10;3.20;;;6.60;99.90;;;;;;5063535;28;20262;-84
2023/01/15 07:24:18;;;;;;;5.73;2.97;;;6.60;99.90;;;;;;5051602;28;20235;-85
2023/01/15 07:27:07;;;;;;;4.77;3.13;;;6.60;99.90;;;;;;5052563;28;20229;-84
2023/01/15 07:29:57;;;;;;;4.40;2.87;;;6.50;99.90;;;;;;5065798;28;20312;-84
2023/01/15 07:32:47;;;;;;;4.77;3.27;;;6.60;99.90;;;;;;5062383;28;20216;-85
2023/01/15 07:35:36;;;;;;;5.87;3.23;;;6.50;99.90;;;;;;5062896;28;20227;-85
2023/01/15 07:38:30;;;;;;;4.73;3.00;;;6.60;99.90;;;;;;5065378;28;20317;-84
2023/01/15 07:51:11;;;;;;;5.83;3.07;;;6.60;99.90;;;;;;5049550;28;20250;-85
2023/01/15 07:54:13;;;;;;;6.87;3.50;;;6.60;99.90;;;;;;5050279;28;20237;-85
2023/01/15 07:57:11;;;;;;;4.20;3.20;;;6.60;99.90;;;;;;5012823;28;20217;-87
2023/01/15 08:00:00;;;;;;;5.60;3.43;;;6.60;99.90;;;;;;5004466;28;20563;-86
2023/01/15 08:03:02;;;;;;;7.40;3.80;;;6.70;99.90;;;;;;5018381;28;20232;-89
2023/01/15 08:05:51;;;;;;;4.43;2.87;;;6.60;99.90;;;;;;5022874;28;20295;-85
2023/01/15 08:08:40;;;;;;;5.53;3.30;;;6.70;99.90;;;;;;5001636;28;20230;-90
2023/01/15 08:17:43;;;;;;;5.20;3.10;;;6.70;99.90;;;;;;5007008;28;20239;-87
2023/01/15 08:20:35;;;;;;;6.57;3.13;;;6.80;99.90;;;;;;4984390;28;20227;-87
2023/01/15 08:23:23;;;;;;;4.60;3.07;;;6.80;99.90;;;;;;4991620;28;20225;-87
2023/01/15 08:26:13;;;;;;;4.67;3.13;;;6.80;99.90;;;;;;5002412;28;20680;-85
2023/01/15 08:29:02;;;;;;;4.20;2.80;;;6.90;99.90;;;;;;5012016;28;20904;-86
2023/01/15 08:31:52;;;;;;;4.87;3.13;;;6.90;99.90;;;;;;5006075;28;20259;-88
2023/01/15 08:34:44;;;;;;;4.23;3.03;;;6.90;99.90;;;;;;4982152;28;20226;-86
2023/01/15 08:37:35;;;;;;;4.37;2.70;;;6.90;99.90;;;;;;4986653;28;20222;-85
2023/01/15 08:40:25;;;;;;;7.10;3.03;;;7.00;99.90;;;;;;4997083;28;20239;-85
2023/01/15 08:43:14;;;;;;;4.83;3.00;;;7.00;99.90;;;;;;5005274;28;20901;-85
2023/01/15 08:46:06;;;;;;;5.27;3.37;;;7.10;99.90;;;;;;4997090;28;20810;-88
2023/01/15 08:48:56;;;;;;;6.27;3.10;;;7.10;99.90;;;;;;5008934;28;20782;-86
2023/01/15 08:51:48;;;;;;;6.23;3.63;;;7.10;99.90;;;;;;5017392;28;20232;-86
2023/01/15 08:54:39;;;;;;;5.67;2.77;;;7.10;99.90;;;;;;4983726;28;20240;-85
2023/01/15 08:57:30;;;;;;;5.07;3.20;;;7.00;99.90;;;;;;5002740;28;20219;-86
2023/01/15 09:00:20;;;;;;;4.93;2.97;;;7.00;99.90;;;;;;4998653;28;20718;-87
2023/01/15 09:03:09;;;;;;;4.97;3.03;;;7.10;99.90;;;;;;5005678;28;20221;-85
2023/01/15 09:05:58;;;;;;;7.27;3.30;;;7.00;99.90;;;;;;5008083;28;20235;-86
2023/01/15 09:08:47;;;;;;;6.27;3.40;;;7.00;99.90;;;;;;5019801;28;20264;-85
2023/01/15 09:11:40;;;;;;;6.07;3.37;;;7.00;99.90;;;;;;5009592;28;20304;-87
2023/01/15 09:14:29;;;;;;;9.13;4.10;;;7.10;99.90;;;;;;5011368;28;20241;-87
2023/01/15 09:17:39;;;;;;;5.87;3.13;;;7.10;99.90;;;;;;5011332;28;20998;-87
2023/01/15 09:20:28;;;;;;;8.67;3.10;;;7.10;99.90;;;;;;5025942;28;20265;-87
2023/01/15 09:23:17;;;;;;;5.47;3.07;;;6.90;99.90;;;;;;5025276;28;20244;-86
2023/01/15 09:26:07;;;;;;;7.60;3.50;;;7.00;99.90;;;;;;4997336;28;20224;-87
2023/01/15 09:28:58;;;;;;;5.80;3.63;;;7.00;99.90;;;;;;5005272;28;20711;-85
2023/01/15 09:31:47;;;;;;;5.03;3.13;;;7.00;99.90;;;;;;5026162;28;20714;-86
2023/01/15 09:34:36;;;;;;;5.53;3.20;;;7.00;99.90;;;;;;5024539;28;20604;-84
2023/01/15 09:37:25;;;;;;;6.53;3.63;;;7.00;99.90;;;;;;5019481;28;20252;-87
2023/01/15 09:40:30;;;;;;;5.73;3.33;;;6.90;99.90;;;;;;4999335;28;20283;-87
2023/01/15 09:43:30;;;;;;;5.03;3.47;;;6.90;99.90;;;;;;5009770;28;20577;-89
2023/01/15 09:46:25;;;;;;;5.17;3.07;;;6.90;99.90;;;;;;5001069;28;20222;-87
2023/01/15 09:49:28;;;;;;;5.33;3.30;;;6.80;99.90;;;;;;5008447;28;20234;-89
2023/01/15 09:52:30;;;;;;;5.80;3.40;;;6.80;99.90;;;;;;5016413;28;20226;-87
2023/01/15 09:55:22;;;;;;;6.40;3.83;;;6.90;99.90;;;;;;5025273;28;20228;-85
2023/01/15 09:58:13;;;;;;;4.57;3.70;;;6.90;99.90;;;;;;5014594;28;20694;-85
2023/01/15 10:01:03;;;;;;;8.17;3.93;;;6.90;99.90;;;;;;5011786;28;20233;-86
2023/01/15 10:03:59;;;;;;;6.83;3.90;;;6.90;99.90;;;;;;5011659;28;20339;-85
2023/01/15 10:06:56;;;;;;;6.50;3.60;;;6.80;99.90;;;;;;5015994;28;20239;-85
2023/01/15 10:09:47;;;;;;;8.60;4.30;;;6.80;99.90;;;;;;5038636;28;20264;-87
2023/01/15 10:12:38;;;;;;;7.60;3.53;;;6.80;99.90;;;;;;5044221;28;20226;-87
2023/01/15 10:15:36;;;;;;;4.70;3.20;;;6.80;99.90;;;;;;5039130;28;20213;-86
2023/01/15 10:18:27;;;;;;;7.57;4.30;;;6.90;99.90;;;;;;5031383;28;20269;-87
2023/01/15 10:21:32;;;;;;;7.40;4.47;;;6.80;99.90;;;;;;5014049;28;20298;-85
2023/01/15 10:24:30;;;;;;;8.77;4.23;;;6.70;99.90;;;;;;5019450;28;20888;-86
2023/01/15 10:27:22;;;;;;;9.87;4.07;;;6.80;99.90;;;;;;5012461;28;20305;-87
2023/01/15 10:30:17;;;;;;;8.43;4.30;;;6.80;99.90;;;;;;5019020;28;20223;-88
2023/01/15 10:33:24;;;;;;;8.63;4.20;;;6.80;99.90;;;;;;5021861;28;20236;-87
2023/01/15 10:36:19;;;;;;;6.87;4.50;;;6.90;99.90;;;;;;5021169;28;20218;-87
2023/01/15 10:39:19;;;;;;;7.60;4.30;;;6.80;99.90;;;;;;5033407;28;20685;-86
2023/01/15 10:42:15;;;;;;;6.40;4.10;;;6.90;99.90;;;;;;5032029;28;20229;-87
2023/01/15 10:45:12;;;;;;;7.40;4.20;;;7.00;99.90;;;;;;5032059;28;20222;-86
2023/01/15 10:48:06;;;;;;;6.10;4.10;;;6.90;99.90;;;;;;5025493;28;20604;-87
2023/01/15 10:50:56;;;;;;;7.17;4.60;;;6.90;99.90;;;;;;5024214;28;20943;-87
2023/01/15 10:53:49;;;;;;;8.37;4.60;;;6.90;99.90;;;;;;5011236;28;20226;-86
2023/01/15 10:56:44;;;;;;;9.77;4.87;;;7.00;99.90;;;;;;5006513;28;20781;-89
2023/01/15 10:59:42;;;;;;;8.53;4.73;;;7.00;99.90;;;;;;5028824;28;20784;-87
2023/01/15 11:02:35;;;;;;;9.60;4.93;;;7.00;99.90;;;;;;5047838;28;20283;-86
2023/01/15 11:05:25;;;;;;;9.93;4.60;;;7.00;99.90;;;;;;5034290;28;20283;-86
2023/01/15 11:08:23;;;;;;;8.77;4.50;;;6.90;99.90;;;;;;5028029;28;20247;-87
2023/01/15 11:21:15;;;;;;;10.17;6.07;;;6.90;99.90;;;;;;4993948;28;20228;-86
2023/01/15 11:24:04;;;;;;;11.37;6.20;;;6.90;99.90;;;;;;5038845;28;20728;-87
2023/01/15 11:26:54;;;;;;;12.07;5.77;;;6.90;99.90;;;;;;5011214;28;20231;-89
2023/01/15 11:29:50;;;;;;;10.77;6.30;;;6.90;99.90;;;;;;5023246;28;20232;-87
2023/01/15 11:32:39;;;;;;;12.00;5.50;;;7.00;99.90;;;;;;5021365;28;20303;-88
2023/01/15 11:35:28;;;;;;;13.60;5.20;;;7.00;99.90;;;;;;5012544;28;20249;-86
2023/01/15 11:38:21;;;;;;;12.27;5.40;;;6.90;99.90;;;;;;5013620;28;20374;-85
2023/01/15 11:41:21;;;;;;;10.83;5.57;;;6.80;99.90;;;;;;5006996;28;20221;-86
2023/01/15 11:50:45;;;;;;;11.80;5.93;;;6.90;99.90;;;;;;5002353;28;20248;-88
2023/01/15 11:53:38;;;;;;;9.83;5.57;;;6.80;99.90;;;;;;5016825;28;20214;-86
2023/01/15 11:56:30;;;;;;;11.10;5.30;;;6.80;99.90;;;;;;4989634;28;20321;-87
2023/01/15 11:59:22;;;;;;;9.40;6.00;;;6.80;99.90;;;;;;5005395;28;20227;-87
2023/01/15 12:02:24;;;;;;;11.37;6.73;;;6.90;99.90;;;;;;5022991;28;20220;-88
2023/01/15 12:05:16;;;;;;;10.77;6.20;;;7.00;99.90;;;;;;5037730;28;20570;-85
2023/01/15 12:08:20;;;;;;;8.97;6.23;;;7.10;99.90;;;;;;5049579;28;20639;-83
2023/01/15 12:11:32;;;;;;;10.47;5.93;;;7.10;99.90;;;;;;5047231;28;20289;-87
2023/01/15 12:14:45;;;;;;;9.50;5.70;;;7.10;99.90;;;;;;5041645;28;20702;-86
2023/01/15 12:18:03;;;;;;;12.17;6.77;;;7.10;99.90;;;;;;5025151;28;20213;-87
2023/01/15 12:21:02;;;;;;;11.63;6.40;;;7.10;99.90;;;;;;4993759;28;20230;-83
2023/01/15 12:24:13;;;;;;;10.80;6.40;;;7.10;99.90;;;;;;5025585;28;20217;-87
2023/01/15 12:27:13;;;;;;;11.73;6.90;;;7.10;99.90;;;;;;5023297;28;20299;-86
2023/01/15 12:30:13;;;;;;;11.67;6.57;;;7.10;99.90;;;;;;5032508;28;20258;-84
2023/01/15 12:33:17;;;;;;;10.67;6.40;;;7.00;99.90;;;;;;5031792;28;20250;-84
2023/01/15 12:36:12;;;;;;;11.20;6.80;;;7.00;99.90;;;;;;5029741;28;20379;-86
2023/01/15 12:39:05;;;;;;;14.27;6.97;;;7.10;99.90;;;;;;5019075;28;20254;-85
2023/01/15 12:45:09;;;;;;;12.50;6.60;;;7.10;99.90;;;;;;5013648;28;20279;-86
2023/01/15 12:48:05;;;;;;;14.63;7.50;;;7.00;99.90;;;;;;5011465;28;20229;-84
2023/01/15 12:51:01;;;;;;;13.27;6.80;;;7.10;99.90;;;;;;5014127;28;20222;-85
2023/01/15 12:53:53;;;;;;;12.30;7.03;;;7.10;99.90;;;;;;5002031;28;20320;-86
2023/01/15 12:56:52;;;;;;;12.73;6.97;;;7.20;99.90;;;;;;5006925;28;20234;-87
2023/01/15 12:59:48;;;;;;;12.13;6.37;;;7.20;99.90;;;;;;5013528;28;20221;-85
2023/01/15 13:02:52;;;;;;;10.97;6.83;;;7.30;99.90;;;;;;5027492;28;20305;-87
2023/01/15 13:05:47;;;;;;;14.13;7.00;;;7.20;99.90;;;;;;5025048;28;20237;-86
2023/01/15 13:08:40;;;;;;;11.10;6.70;;;7.20;99.90;;;;;;5025770;28;20229;-85
2023/01/15 13:11:29;;;;;;;11.00;6.60;;;7.20;99.90;;;;;;5040783;28;20305;-87
2023/01/15 13:14:20;;;;;;;11.03;6.83;;;7.30;99.90;;;;;;5027805;28;20229;-90
2023/01/15 13:17:22;;;;;;;10.47;6.47;;;7.30;99.90;;;;;;5028855;28;20213;-86
2023/01/15 13:20:31;;;;;;;11.20;6.97;;;7.30;99.90;;;;;;5016763;28;20219;-88
2023/01/15 13:23:35;;;;;;;13.57;7.43;;;7.30;99.90;;;;;;5024744;28;20795;-87
2023/01/15 13:26:53;;;;;;;12.63;6.80;;;7.40;99.90;;;;;;5020927;28;20318;-88
2023/01/15 13:29:55;;;;;;;12.10;6.70;;;7.50;99.90;;;;;;5019202;28;20687;-86
2023/01/15 13:32:48;;;;;;;11.80;7.60;;;7.50;99.90;;;;;;5027573;28;20304;-87
2023/01/15 13:35:45;;;;;;;11.93;6.70;;;7.50;99.90;;;;;;5021152;28;20232;-88
2023/01/15 13:38:41;;;;;;;13.10;7.27;;;7.40;99.90;;;;;;5020741;28;20332;-89
2023/01/15 13:44:50;;;;;;;12.80;7.07;;;7.50;99.90;;;;;;5032454;28;20220;-86
2023/01/15 13:47:42;;;;;;;13.73;6.60;;;7.60;99.90;;;;;;5026410;28;20782;-86
2023/01/15 13:50:33;;;;;;;14.33;6.80;;;7.60;99.90;;;;;;5005983;28;20231;-86
2023/01/15 13:53:28;;;;;;;12.80;6.90;;;7.60;99.90;;;;;;5039097;28;20285;-88
2023/01/15 13:56:27;;;;;;;10.67;6.53;;;7.60;99.90;;;;;;5038086;28;20373;-85
2023/01/15 13:59:44;;;;;;;13.63;7.17;;;7.60;99.90;;;;;;5022851;28;20228;-86
2023/01/15 14:02:37;;;;;;;10.80;7.03;;;7.70;99.90;;;;;;5004667;28;20348;-85
2023/01/15 14:05:36;;;;;;;9.63;6.30;;;7.80;99.90;;;;;;5026375;28;20227;-88
2023/01/15 14:08:28;;;;;;;12.20;7.37;;;7.80;99.90;;;;;;5030053;28;20234;-85
2023/01/15 14:11:36;;;;;;;14.10;7.27;;;7.80;99.90;;;;;;5007827;28;20776;-84
2023/01/15 14:14:49;;;;;;;10.43;6.60;;;7.80;99.90;;;;;;5033331;28;20753;-87
2023/01/15 14:18:10;;;;;;;11.73;6.57;;;7.70;99.90;;;;;;5035551;28;20248;-86
2023/01/15 14:21:19;;;;;;;11.10;6.60;;;7.80;99.90;;;;;;5035752;28;20245;-88
2023/01/15 14:24:45;;;;;;;11.87;7.30;;;7.70;99.90;;;;;;5012002;28;20299;-88
2023/01/15 14:27:54;;;;;;;11.77;6.43;;;7.80;99.90;;;;;;5006156;28;20682;-87
2023/01/15 14:31:16;;;;;;;13.60;7.00;;;7.80;99.90;;;;;;5024718;28;20307;-87
2023/01/15 14:34:14;;;;;;;11.50;7.10;;;7.90;99.90;;;;;;5023879;28;20235;-84
2023/01/15 14:37:07;;;;;;;10.93;6.63;;;7.90;99.90;;;;;;5038463;28;20221;-85
2023/01/15 14:39:58;;;;;;;10.00;6.53;;;7.90;99.90;;;;;;5025678;28;20248;-86
2023/01/15 14:43:03;;;;;;;11.23;6.17;;;8.00;99.90;;;;;;5007365;28;20248;-86
2023/01/15 14:45:54;;;;;;;11.77;6.57;;;7.90;99.90;;;;;;5041585;28;20241;-89
2023/01/15 14:48:43;;;;;;;11.17;6.67;;;8.00;99.90;;;;;;5032390;28;20233;-87
2023/01/15 14:51:36;;;;;;;10.88;6.70;;;8.00;99.90;;;;;;5025651;28;20226;-86
2023/01/15 14:54:25;;;;;;;10.73;6.53;;;7.80;99.90;;;;;;5037250;28;20228;-86
2023/01/15 14:57:16;;;;;;;10.50;6.10;;;7.80;99.90;;;;;;5024956;28;20297;-85
2023/01/15 15:00:09;;;;;;;10.07;5.93;;;7.90;99.90;;;;;;5020853;28;20600;-85
2023/01/15 15:03:01;;;;;;;9.20;5.87;;;7.90;99.90;;;;;;5037484;28;20251;-84
2023/01/15 15:05:51;;;;;;;7.67;5.63;;;7.90;99.90;;;;;;5018254;28;20232;-81
2023/01/15 15:08:42;;;;;;;10.10;6.40;;;8.00;99.90;;;;;;5031284;28;20224;-85
2023/01/15 15:14:49;;;;;;;9.27;5.78;;;8.10;99.90;;;;;;5000146;28;20225;-86
2023/01/15 15:17:45;;;;;;;9.23;5.95;;;8.00;99.90;;;;;;5010205;28;20245;-86
2023/01/15 15:20:46;;;;;;;10.97;6.23;;;8.00;99.90;;;;;;5021425;28;20735;-84
2023/01/15 15:23:44;;;;;;;9.55;6.00;;;8.00;99.90;;;;;;5009144;28;20232;-83
2023/01/15 15:26:34;;;;;;;9.05;5.07;;;8.10;99.90;;;;;;5039242;28;20633;-82
2023/01/15 15:29:24;;;;;;;8.80;5.50;;;8.20;99.90;;;;;;5033218;28;20229;-82
2023/01/15 15:32:17;;;;;;;8.17;5.10;;;8.20;99.90;;;;;;5012156;28;20232;-85
2023/01/15 15:35:19;;;;;;;10.87;5.87;;;8.20;99.90;;;;;;5032019;28;20224;-83
2023/01/15 15:38:18;;;;;;;10.73;6.13;;;8.30;99.90;;;;;;5032339;28;20224;-83
2023/01/15 15:41:12;;;;;;;9.60;6.00;;;8.20;99.90;;;;;;5031822;28;20243;-83
2023/01/15 15:50:28;;;;;;;9.90;5.60;;;8.30;99.90;;;;;;5012880;28;20227;-83
2023/01/15 15:53:19;;;;;;;8.17;5.33;;;8.40;99.90;;;;;;5023736;28;20235;-81
2023/01/15 15:56:08;;;;;;;10.27;5.30;;;8.40;99.90;;;;;;5015168;28;20638;-85
2023/01/15 15:58:58;;;;;;;10.13;5.33;;;8.40;99.90;;;;;;5021600;28;20590;-85
2023/01/15 16:01:47;;;;;;;10.40;5.10;;;8.50;99.90;;;;;;5021934;28;20324;-84
2023/01/15 16:04:36;;;;;;;9.70;5.00;;;8.50;99.90;;;;;;5045865;28;20217;-82
2023/01/15 16:07:28;;;;;;;10.53;5.17;;;8.50;99.90;;;;;;5033036;28;20221;-84
2023/01/15 16:10:22;;;;;;;9.50;5.60;;;8.50;99.90;;;;;;5023628;28;20256;-85